Time;durP1;ratioP1;P1;durP2;ratioP2;P2;SDS_P1;SDS_P2;PMS_P1;PMS_P2;Temp;Humidity;BMP_temperature;BMP_pressure;BME280_temperature;BME280_humidity;BME280_pressure;Samples;Min_cycle;Max_cycle;Signal;HPM_P1;HPM_P2
2022/12/07 00:00:23;;;;;;;;;;;;;;;27.79;43.46;96945.98;608025;233;66847;-68
2022/12/07 00:02:50;;;;;;;;;;;;;;;27.78;42.20;96949.02;608015;233;64938;-67
2022/12/07 00:05:18;;;;;;;;;;;;;;;27.78;41.39;96954.41;608065;233;68745;-67
2022/12/07 00:07:45;;;;;;;;;;;;;;;27.77;44.37;96952.80;608072;233;66733;-67
2022/12/07 00:10:13;;;;;;;;;;;;;;;27.77;43.66;96955.50;608097;233;65887;-67
2022/12/07 00:12:40;;;;;;;;;;;;;;;27.75;42.15;96955.84;608078;233;66686;-67
2022/12/07 00:15:08;;;;;;;;;;;;;;;27.74;43.84;96953.44;608033;233;66506;-67
2022/12/07 00:17:36;;;;;;;;;;;;;;;27.74;42.88;96948.83;608065;233;64880;-67
2022/12/07 00:20:03;;;;;;;;;;;;;;;27.73;43.59;96954.56;608061;233;68305;-67
2022/12/07 00:22:31;;;;;;;;;;;;;;;27.73;44.55;96951.86;608078;233;68761;-68
2022/12/07 00:24:58;;;;;;;;;;;;;;;27.71;41.43;96959.48;608000;233;65087;-68
2022/12/07 00:27:27;;;;;;;;;;;;;;;27.71;42.74;96962.18;609622;232;68937;-68
2022/12/07 00:29:55;;;;;;;;;;;;;;;27.70;43.49;96960.59;610009;232;68536;-68
2022/12/07 00:32:22;;;;;;;;;;;;;;;27.68;43.06;96964.39;610042;232;65028;-68
2022/12/07 00:34:50;;;;;;;;;;;;;;;27.68;42.86;96960.91;610051;232;69022;-68
2022/12/07 00:37:17;;;;;;;;;;;;;;;27.68;44.03;96966.30;610024;232;68706;-68
2022/12/07 00:39:46;;;;;;;;;;;;;;;27.65;43.93;96967.73;610018;232;65106;-68
2022/12/07 00:42:14;;;;;;;;;;;;;;;27.65;43.89;96964.23;610039;232;66727;-68
2022/12/07 00:44:41;;;;;;;;;;;;;;;27.64;42.81;96962.66;610012;232;66433;-68
2022/12/07 00:47:09;;;;;;;;;;;;;;;27.64;42.91;96957.27;610066;232;64917;-68
2022/12/07 00:49:37;;;;;;;;;;;;;;;27.63;41.92;96952.95;609982;232;68710;-68
2022/12/07 00:52:05;;;;;;;;;;;;;;;27.62;41.97;96952.16;610035;232;68959;-68
2022/12/07 00:54:35;;;;;;;;;;;;;;;27.61;43.53;96949.77;610022;232;65030;-68
2022/12/07 00:57:02;;;;;;;;;;;;;;;27.59;41.85;96952.80;609915;232;69015;-68
2022/12/07 00:59:29;;;;;;;;;;;;;;;27.59;44.16;96949.31;610063;232;68856;-68
2022/12/07 01:01:57;;;;;;;;;;;;;;;27.57;43.18;96946.91;610043;232;65172;-68
2022/12/07 01:04:24;;;;;;;;;;;;;;;27.57;42.77;96938.03;610011;232;68776;-68
2022/12/07 01:06:52;;;;;;;;;;;;;;;27.55;42.57;96930.23;610059;232;68281;-68
2022/12/07 01:09:19;;;;;;;;;;;;;;;27.54;44.19;96928.66;609996;232;65027;-68
2022/12/07 01:11:46;;;;;;;;;;;;;;;27.54;42.63;96922.47;610067;232;69014;-68
2022/12/07 01:14:14;;;;;;;;;;;;;;;27.52;42.84;96924.67;610063;232;68988;-68
2022/12/07 01:16:41;;;;;;;;;;;;;;;27.53;44.51;96928.95;610025;232;65034;-68
2022/12/07 01:19:09;;;;;;;;;;;;;;;27.50;41.83;96925.02;610050;232;68842;-68
2022/12/07 01:21:37;;;;;;;;;;;;;;;27.51;43.98;96912.30;610044;232;68877;-68
2022/12/07 01:24:05;;;;;;;;;;;;;;;27.48;43.58;96912.94;609991;232;64657;-67
2022/12/07 01:26:33;;;;;;;;;;;;;;;27.47;42.60;96912.13;610092;232;69059;-67
2022/12/07 01:29:00;;;;;;;;;;;;;;;27.47;44.02;96905.94;610028;232;68608;-67
2022/12/07 01:31:28;;;;;;;;;;;;;;;27.45;43.72;96912.45;610046;232;65029;-67
2022/12/07 01:33:57;;;;;;;;;;;;;;;27.44;44.65;96912.75;610042;232;68378;-67
2022/12/07 01:36:26;;;;;;;;;;;;;;;27.43;43.10;96911.18;609991;232;68898;-67
2022/12/07 01:39:01;;;;;;;;;;;;;;;27.43;44.06;96905.78;609816;232;65183;-67
2022/12/07 01:41:33;;;;;;;;;;;;;;;27.41;43.29;96906.08;610029;232;66648;-67
2022/12/07 01:44:11;;;;;;;;;;;;;;;27.40;44.88;96901.80;610016;232;68678;-67
2022/12/07 01:46:39;;;;;;;;;;;;;;;27.39;42.91;96899.41;610015;232;65014;-67
2022/12/07 01:49:08;;;;;;;;;;;;;;;27.38;43.73;96904.02;609987;232;66456;-67
2022/12/07 01:51:37;;;;;;;;;;;;;;;27.37;44.44;96896.25;610024;232;68553;-68
2022/12/07 01:54:05;;;;;;;;;;;;;;;27.36;44.33;96895.44;610052;232;65123;-68
2022/12/07 01:56:33;;;;;;;;;;;;;;;27.35;42.96;96888.46;610043;232;66550;-68
2022/12/07 01:59:01;;;;;;;;;;;;;;;27.35;44.25;96887.67;609980;232;66679;-68
2022/12/07 02:01:28;;;;;;;;;;;;;;;27.33;43.67;96887.98;609993;232;65224;-68
2022/12/07 02:03:56;;;;;;;;;;;;;;;27.33;43.21;96881.80;609997;232;68678;-68
2022/12/07 02:06:25;;;;;;;;;;;;;;;27.32;44.38;96885.61;610041;232;68788;-68
2022/12/07 02:08:54;;;;;;;;;;;;;;;27.31;44.60;96875.91;610011;232;65044;-68
2022/12/07 02:11:22;;;;;;;;;;;;;;;27.29;45.05;96875.45;609991;232;66723;-68
2022/12/07 02:13:50;;;;;;;;;;;;;;;27.28;45.71;96873.84;610021;232;68771;-68
2022/12/07 02:16:21;;;;;;;;;;;;;;;27.26;44.03;96874.17;610004;232;63069;-68
2022/12/07 02:18:51;;;;;;;;;;;;;;;27.26;45.13;96867.99;609866;232;68864;-68
2022/12/07 02:21:23;;;;;;;;;;;;;;;27.25;44.35;96869.08;610090;232;66356;-68
2022/12/07 02:24:08;;;;;;;;;;;;;;;27.23;44.49;96867.50;610025;232;62940;-68
2022/12/07 02:26:43;;;;;;;;;;;;;;;27.22;43.82;96873.99;609972;232;68925;-68
2022/12/07 02:29:13;;;;;;;;;;;;;;;27.22;43.26;96871.30;610011;232;66744;-68
2022/12/07 02:31:42;;;;;;;;;;;;;;;27.20;44.36;96868.14;610042;232;62843;-68
2022/12/07 02:34:11;;;;;;;;;;;;;;;27.19;43.77;96869.23;609920;232;66415;-67
2022/12/07 02:36:42;;;;;;;;;;;;;;;27.17;43.96;96871.47;609947;232;66630;-67
2022/12/07 02:39:17;;;;;;;;;;;;;;;27.16;44.02;96869.86;609966;232;62753;-67
2022/12/07 02:41:46;;;;;;;;;;;;;;;27.15;44.90;96873.65;609952;232;68903;-68
2022/12/07 02:44:15;;;;;;;;;;;;;;;27.14;44.29;96871.25;609997;232;69329;-68
2022/12/07 02:46:44;;;;;;;;;;;;;;;27.11;44.67;96869.98;610020;232;62845;-68
2022/12/07 02:49:12;;;;;;;;;;;;;;;27.11;44.39;96877.28;610066;232;68358;-69
2022/12/07 02:51:41;;;;;;;;;;;;;;;27.11;45.07;96874.58;609999;232;68715;-68
2022/12/07 02:54:16;;;;;;;;;;;;;;;27.09;45.72;96874.09;609995;232;63168;-68
2022/12/07 02:56:48;;;;;;;;;;;;;;;27.10;45.26;96875.70;610011;232;66927;-68
2022/12/07 02:59:17;;;;;;;;;;;;;;;27.08;44.37;96867.13;610015;232;68500;-68
2022/12/07 03:01:49;;;;;;;;;;;;;;;27.07;44.64;96869.03;609792;232;65069;-68
2022/12/07 03:04:33;;;;;;;;;;;;;;;27.06;45.15;96859.33;610064;232;66731;-68
2022/12/07 03:07:02;;;;;;;;;;;;;;;27.04;44.84;96861.58;610061;232;66579;-68
2022/12/07 03:09:40;;;;;;;;;;;;;;;27.03;45.24;96854.57;609904;232;65305;-67
2022/12/07 03:12:12;;;;;;;;;;;;;;;27.01;45.61;96862.20;609794;232;68373;-67
2022/12/07 03:14:41;;;;;;;;;;;;;;;27.01;45.48;96860.30;610010;232;68351;-67
2022/12/07 03:17:10;;;;;;;;;;;;;;;26.99;46.09;96857.11;609972;232;65090;-68
2022/12/07 03:19:38;;;;;;;;;;;;;;;26.98;44.66;96866.32;609965;232;68490;-68
2022/12/07 03:22:10;;;;;;;;;;;;;;;26.99;46.00;96864.41;610024;232;68536;-68
2022/12/07 03:24:45;;;;;;;;;;;;;;;26.97;44.55;96856.62;610017;232;62755;-68
2022/12/07 03:27:14;;;;;;;;;;;;;;;26.96;45.30;96862.34;609707;232;68577;-68
2022/12/07 03:29:43;;;;;;;;;;;;;;;26.95;44.90;96869.62;610024;232;64312;-68
2022/12/07 03:32:28;;;;;;;;;;;;;;;26.94;45.79;96872.64;610035;232;65158;-68
2022/12/07 03:34:57;;;;;;;;;;;;;;;26.93;45.22;96869.16;610059;232;68552;-68
2022/12/07 03:37:26;;;;;;;;;;;;;;;26.92;44.81;96867.55;609947;232;68388;-68
2022/12/07 03:40:01;;;;;;;;;;;;;;;26.91;46.87;96873.27;609868;232;65114;-68
2022/12/07 03:42:29;;;;;;;;;;;;;;;26.90;46.12;96868.97;609898;232;66358;-68
2022/12/07 03:44:57;;;;;;;;;;;;;;;26.89;45.37;96870.88;610016;232;66957;-68
2022/12/07 03:47:26;;;;;;;;;;;;;;;26.89;45.30;96870.09;610038;232;63227;-68
2022/12/07 03:49:55;;;;;;;;;;;;;;;26.87;46.24;96880.38;609910;232;66618;-68
2022/12/07 03:52:43;;;;;;;;;;;;;;;26.85;45.16;96866.45;609655;232;66596;-66
2022/12/07 03:55:15;;;;;;;;;;;;;;;26.85;45.11;96869.14;609954;232;65149;-66
2022/12/07 03:57:43;;;;;;;;;;;;;;;26.85;45.88;96869.14;610043;232;66324;-66
2022/12/07 04:00:12;;;;;;;;;;;;;;;26.83;44.81;96871.34;610007;232;69306;-66
2022/12/07 04:02:38;;;;;;;;;;;;;;;26.81;45.11;96866.25;610059;232;64997;-66
2022/12/07 04:05:06;;;;;;;;;;;;;;;26.80;44.90;96864.67;610089;232;68555;-66
2022/12/07 04:07:34;;;;;;;;;;;;;;;26.79;46.14;96869.28;610042;232;68761;-67
2022/12/07 04:10:01;;;;;;;;;;;;;;;26.78;46.08;96864.19;609991;232;65059;-67
2022/12/07 04:12:29;;;;;;;;;;;;;;;26.77;44.34;96858.00;610041;232;68869;-66
2022/12/07 04:14:56;;;;;;;;;;;;;;;26.76;44.94;96856.42;610005;232;66706;-67
2022/12/07 04:17:24;;;;;;;;;;;;;;;26.76;45.68;96859.13;610073;232;62852;-67
2022/12/07 04:19:51;;;;;;;;;;;;;;;26.76;45.42;96855.61;609874;232;66683;-66
2022/12/07 04:22:19;;;;;;;;;;;;;;;26.75;46.24;96859.42;609994;232;66761;-66
2022/12/07 04:24:46;;;;;;;;;;;;;;;26.74;43.89;96855.94;609818;232;62932;-66
2022/12/07 04:27:14;;;;;;;;;;;;;;;26.73;45.77;96859.72;609097;232;66584;-67
2022/12/07 04:29:41;;;;;;;;;;;;;;;26.71;44.33;96845.78;609919;232;68526;-67
2022/12/07 04:32:09;;;;;;;;;;;;;;;26.71;46.80;96853.87;610046;232;64974;-68
2022/12/07 04:34:36;;;;;;;;;;;;;;;26.73;48.29;96861.63;609991;232;68892;-68
2022/12/07 04:37:04;;;;;;;;;;;;;;;26.70;45.27;96852.27;610029;232;66505;-68
2022/12/07 04:39:32;;;;;;;;;;;;;;;26.67;46.25;96847.50;609990;232;62959;-68
2022/12/07 04:42:03;;;;;;;;;;;;;;;26.66;46.06;96843.22;610045;232;49902;-68
2022/12/07 04:44:31;;;;;;;;;;;;;;;26.66;47.02;96845.92;610086;232;68825;-68
2022/12/07 04:46:58;;;;;;;;;;;;;;;26.65;46.55;96844.31;609897;232;62985;-68
2022/12/07 04:49:28;;;;;;;;;;;;;;;26.64;46.57;96848.13;610049;232;66559;-68
2022/12/07 04:51:55;;;;;;;;;;;;;;;26.63;45.93;96845.73;609946;232;68244;-68
2022/12/07 04:54:23;;;;;;;;;;;;;;;26.63;46.16;96848.42;610005;232;65183;-68
2022/12/07 04:56:55;;;;;;;;;;;;;;;26.60;45.43;96847.17;609926;232;68811;-68
2022/12/07 04:59:23;;;;;;;;;;;;;;;26.62;46.88;96838.76;609277;232;69003;-68
2022/12/07 05:01:56;;;;;;;;;;;;;;;26.59;47.84;96834.78;610029;232;64928;-68
2022/12/07 05:04:23;;;;;;;;;;;;;;;26.59;48.14;96834.00;610013;232;68877;-68
2022/12/07 05:06:54;;;;;;;;;;;;;;;26.57;46.63;96831.59;609881;232;49740;-68
2022/12/07 05:09:26;;;;;;;;;;;;;;;26.55;47.92;96825.75;610080;232;45032;-68
2022/12/07 05:11:54;;;;;;;;;;;;;;;26.54;46.47;96830.32;610065;232;68884;-68
2022/12/07 05:14:23;;;;;;;;;;;;;;;26.54;46.40;96832.23;609983;232;68421;-68
2022/12/07 05:16:53;;;;;;;;;;;;;;;26.54;47.75;96826.84;610052;232;65808;-68
2022/12/07 05:19:22;;;;;;;;;;;;;;;26.53;46.68;96822.56;610040;232;49290;-68
2022/12/07 05:21:50;;;;;;;;;;;;;;;26.53;46.38;96825.26;610009;232;68652;-68
2022/12/07 05:24:18;;;;;;;;;;;;;;;26.49;47.14;96824.25;610008;232;65098;-69
2022/12/07 05:26:45;;;;;;;;;;;;;;;26.50;47.68;96809.69;608931;232;69091;-68
2022/12/07 05:29:14;;;;;;;;;;;;;;;26.48;47.12;96806.50;608032;233;68706;-68
2022/12/07 05:31:42;;;;;;;;;;;;;;;26.47;47.28;96802.23;608042;233;62825;-69
2022/12/07 05:34:10;;;;;;;;;;;;;;;26.46;47.99;96792.54;607994;233;66585;-68
2022/12/07 05:36:37;;;;;;;;;;;;;;;26.47;46.41;96802.23;608082;233;68709;-68
2022/12/07 05:39:05;;;;;;;;;;;;;;;26.48;47.47;96806.50;608009;233;62978;-67
2022/12/07 05:44:18;;;;;;;;;;;;;;;26.46;47.04;96814.09;607930;233;68639;-66
2022/12/07 05:46:46;;;;;;;;;;;;;;;26.46;47.39;96817.58;608028;233;65056;-66
2022/12/07 05:49:13;;;;;;;;;;;;;;;26.45;44.71;96823.30;608050;233;68818;-66
2022/12/07 05:51:41;;;;;;;;;;;;;;;26.46;44.89;96824.88;608003;233;68675;-67
2022/12/07 05:54:08;;;;;;;;;;;;;;;26.46;46.17;96830.26;608074;233;65022;-66
2022/12/07 05:56:36;;;;;;;;;;;;;;;26.45;47.45;96824.08;608100;233;68900;-67
2022/12/07 06:01:52;;;;;;;;;;;;;;;26.44;47.27;96825.20;608036;233;62893;-67
2022/12/07 06:04:20;;;;;;;;;;;;;;;26.45;45.88;96828.69;608031;233;68811;-67
2022/12/07 06:06:48;;;;;;;;;;;;;;;26.45;45.82;96825.98;608018;233;68644;-67
2022/12/07 06:09:16;;;;;;;;;;;;;;;26.46;47.51;96824.88;608013;233;63671;-66
2022/12/07 06:14:29;;;;;;;;;;;;;;;26.44;46.20;96821.72;608014;233;66698;-66
2022/12/07 06:16:56;;;;;;;;;;;;;;;26.44;47.70;96814.42;608027;233;65045;-66
2022/12/07 06:19:24;;;;;;;;;;;;;;;26.45;47.82;96809.83;608035;233;68885;-66
2022/12/07 06:21:52;;;;;;;;;;;;;;;26.44;49.08;96808.24;607983;233;66717;-66
2022/12/07 06:24:19;;;;;;;;;;;;;;;26.45;45.57;96813.30;608010;233;63093;-66
2022/12/07 06:26:47;;;;;;;;;;;;;;;26.45;44.94;96823.30;609065;232;66850;-66
2022/12/07 06:29:14;;;;;;;;;;;;;;;26.47;46.81;96823.78;609994;232;66610;-66
2022/12/07 06:31:45;;;;;;;;;;;;;;;26.48;47.89;96817.28;610124;232;45808;-67
2022/12/07 06:34:15;;;;;;;;;;;;;;;26.48;43.84;96818.06;610001;232;68628;-68
2022/12/07 06:36:42;;;;;;;;;;;;;;;26.49;44.42;96811.59;610008;232;68550;-68
2022/12/07 06:39:10;;;;;;;;;;;;;;;26.50;46.18;96815.08;609975;232;65093;-68
2022/12/07 06:41:38;;;;;;;;;;;;;;;26.51;43.30;96822.07;609986;232;66580;-67
2022/12/07 06:44:06;;;;;;;;;;;;;;;26.52;44.31;96816.38;610054;232;66449;-70
2022/12/07 06:46:40;;;;;;;;;;;;;;;26.52;44.94;96827.16;602998;232;66551;-68
2022/12/07 06:49:05;;;;;;;;;;;;;;;26.54;44.48;96832.23;609401;232;68862;-68
2022/12/07 06:51:35;;;;;;;;;;;;;;;26.54;44.52;96829.53;609996;232;68653;-70
2022/12/07 06:54:03;;;;;;;;;;;;;;;26.55;46.25;96840.02;609929;232;65318;-68
2022/12/07 06:56:31;;;;;;;;;;;;;;;26.55;45.37;96840.02;610028;232;68796;-68
2022/12/07 06:58:58;;;;;;;;;;;;;;;26.56;45.64;96832.72;610081;232;68594;-69
2022/12/07 07:01:26;;;;;;;;;;;;;;;26.55;43.80;96840.02;610007;232;63036;-67
2022/12/07 07:03:53;;;;;;;;;;;;;;;26.54;42.32;96837.61;609988;232;66900;-66
2022/12/07 07:06:21;;;;;;;;;;;;;;;26.49;43.42;96840.41;610125;230;68912;-68
2022/12/07 07:08:49;;;;;;;;;;;;;;;26.48;42.51;96839.63;615062;230;65183;-67
2022/12/07 07:11:16;;;;;;;;;;;;;;;26.47;43.00;96834.56;615067;230;66758;-67
2022/12/07 07:13:45;;;;;;;;;;;;;;;26.46;42.84;96827.56;614889;230;66431;-67
2022/12/07 07:16:12;;;;;;;;;;;;;;;26.46;44.12;96824.88;614711;230;65029;-66
2022/12/07 07:18:40;;;;;;;;;;;;;;;26.45;42.13;96825.98;615096;230;68971;-68
2022/12/07 07:21:07;;;;;;;;;;;;;;;26.44;44.77;96822.51;615025;230;68165;-65
2022/12/07 07:23:35;;;;;;;;;;;;;;;26.44;43.15;96832.49;615098;230;63100;-67
2022/12/07 07:26:02;;;;;;;;;;;;;;;26.45;42.72;96828.69;616253;228;68540;-65
2022/12/07 07:28:30;;;;;;;;;;;;;;;26.46;44.13;96835.65;620399;228;66465;-67
2022/12/07 07:30:57;;;;;;;;;;;;;;;26.46;44.11;96839.13;620488;228;62724;-65
2022/12/07 07:33:25;;;;;;;;;;;;;;;26.48;43.50;96838.84;620395;228;66312;-65
2022/12/07 07:35:52;;;;;;;;;;;;;;;26.49;43.20;96843.92;620510;228;66271;-66
2022/12/07 07:38:22;;;;;;;;;;;;;;;26.48;43.03;96836.14;620550;228;45051;-66
2022/12/07 07:40:49;;;;;;;;;;;;;;;26.50;43.29;96832.03;620430;228;66405;-67
2022/12/07 07:43:17;;;;;;;;;;;;;;;26.50;43.82;96837.42;620388;228;68724;-67
2022/12/07 07:45:44;;;;;;;;;;;;;;;26.51;43.55;96835.55;620465;228;65050;-68
2022/12/07 07:48:12;;;;;;;;;;;;;;;26.51;42.05;96832.85;620417;228;68490;-66
2022/12/07 07:50:39;;;;;;;;;;;;;;;26.53;43.57;96830.65;620532;228;68677;-66
2022/12/07 07:53:08;;;;;;;;;;;;;;;26.54;43.16;96832.23;620417;228;63028;-68
2022/12/07 07:55:35;;;;;;;;;;;;;;;26.54;44.57;96837.61;620312;228;69053;-69
2022/12/07 07:58:03;;;;;;;;;;;;;;;26.54;45.11;96834.92;620431;228;68647;-69
2022/12/07 08:00:30;;;;;;;;;;;;;;;26.52;43.99;96832.55;620445;228;65060;-73
2022/12/07 08:02:59;;;;;;;;;;;;;;;26.52;40.67;96826.38;620433;228;68828;-68
2022/12/07 08:05:26;;;;;;;;;;;;;;;26.56;44.33;96824.63;620373;228;68518;-69
2022/12/07 08:07:54;;;;;;;;;;;;;;;26.60;43.74;96838.27;620461;228;64812;-69
2022/12/07 08:10:21;;;;;;;;;;;;;;;26.62;45.18;96833.37;620364;228;68874;-69
2022/12/07 08:15:34;;;;;;;;;;;;;;;26.65;44.34;96836.23;620471;228;63127;-69
2022/12/07 08:18:02;;;;;;;;;;;;;;;26.66;43.48;96837.83;620473;228;68847;-69
2022/12/07 08:20:31;;;;;;;;;;;;;;;26.68;46.07;96830.23;620439;228;68707;-69
2022/12/07 08:23:00;;;;;;;;;;;;;;;26.70;45.37;96827.21;620396;228;62822;-69
2022/12/07 08:25:28;;;;;;;;;;;;;;;26.70;44.29;96833.39;620302;228;68853;-69
2022/12/07 08:27:56;;;;;;;;;;;;;;;26.72;44.82;96833.09;620438;228;68726;-69
2022/12/07 08:30:23;;;;;;;;;;;;;;;26.72;45.76;96828.48;620443;228;65133;-69
2022/12/07 08:32:51;;;;;;;;;;;;;;;26.73;44.22;96813.89;620420;228;67635;-69
2022/12/07 08:35:20;;;;;;;;;;;;;;;26.75;44.71;96818.98;620392;228;68885;-69
2022/12/07 08:37:48;;;;;;;;;;;;;;;26.75;43.78;96821.68;620405;228;62946;-69
2022/12/07 08:40:15;;;;;;;;;;;;;;;26.76;42.98;96824.08;620304;228;66682;-69
2022/12/07 08:42:44;;;;;;;;;;;;;;;26.77;44.11;96825.66;620452;228;69040;-67
2022/12/07 08:45:13;;;;;;;;;;;;;;;26.76;43.97;96826.77;620381;228;65025;-67
2022/12/07 08:47:42;;;;;;;;;;;;;;;26.74;44.87;96830.88;620369;228;66625;-67
2022/12/07 08:50:12;;;;;;;;;;;;;;;26.73;43.81;96835.45;620131;228;68728;-65
2022/12/07 08:52:41;;;;;;;;;;;;;;;26.72;44.61;96823.09;620321;228;64887;-65
2022/12/07 08:55:10;;;;;;;;;;;;;;;26.72;44.79;96817.70;620445;228;68834;-68
2022/12/07 08:57:38;;;;;;;;;;;;;;;26.74;44.05;96814.71;620427;228;66613;-66
2022/12/07 09:00:06;;;;;;;;;;;;;;;26.75;47.36;96817.08;620268;228;65075;-67
2022/12/07 09:02:33;;;;;;;;;;;;;;;26.74;44.49;96815.50;620249;228;68511;-67
2022/12/07 09:05:01;;;;;;;;;;;;;;;26.74;45.21;96807.41;619399;228;66664;-67
2022/12/07 09:07:30;;;;;;;;;;;;;;;26.75;44.50;96808.20;619272;228;62931;-67
2022/12/07 09:09:59;;;;;;;;;;;;;;;26.74;43.18;96806.63;620333;228;69112;-69
2022/12/07 09:12:26;;;;;;;;;;;;;;;26.74;44.83;96804.72;620434;228;68700;-69
2022/12/07 09:14:54;;;;;;;;;;;;;;;26.75;45.42;96792.03;620382;228;65058;-69
2022/12/07 09:17:23;;;;;;;;;;;;;;;26.74;45.04;96782.36;620432;228;68659;-67
2022/12/07 09:19:51;;;;;;;;;;;;;;;26.75;43.65;96783.94;620401;228;66527;-65
2022/12/07 09:22:18;;;;;;;;;;;;;;;26.75;44.87;96779.34;620480;228;62751;-66
2022/12/07 09:24:46;;;;;;;;;;;;;;;26.76;45.68;96769.34;620478;228;66597;-64
2022/12/07 09:27:14;;;;;;;;;;;;;;;26.76;45.35;96772.86;615423;228;68710;-68
2022/12/07 09:29:41;;;;;;;;;;;;;;;26.77;45.90;96760.95;613649;231;62857;-64
2022/12/07 09:32:09;;;;;;;;;;;;;;;26.77;43.44;96765.55;613572;231;66685;-68
2022/12/07 09:34:36;;;;;;;;;;;;;;;26.77;42.43;96758.25;613620;231;66695;-67
2022/12/07 09:37:04;;;;;;;;;;;;;;;26.77;43.00;96760.16;608597;231;65066;-67
2022/12/07 09:39:31;;;;;;;;;;;;;;;26.77;43.33;96758.25;613634;231;68791;-67
2022/12/07 09:42:00;;;;;;;;;;;;;;;26.76;41.11;96745.90;613445;230;68674;-67
2022/12/07 09:44:28;;;;;;;;;;;;;;;26.78;44.49;96753.66;609935;230;63009;-67
2022/12/07 09:46:56;;;;;;;;;;;;;;;26.79;43.69;96744.45;607864;233;68874;-67
2022/12/07 09:49:27;;;;;;;;;;;;;;;26.80;45.35;96743.35;607895;233;68665;-67
2022/12/07 09:52:05;;;;;;;;;;;;;;;26.83;44.72;96741.94;607931;233;65015;-67
2022/12/07 09:54:34;;;;;;;;;;;;;;;26.84;45.18;96730.81;607220;233;68704;-67
2022/12/07 09:57:01;;;;;;;;;;;;;;;26.86;45.61;96742.09;607800;233;68974;-69
2022/12/07 09:59:29;;;;;;;;;;;;;;;26.86;45.53;96738.60;607846;233;65058;-69
2022/12/07 10:01:58;;;;;;;;;;;;;;;26.88;44.17;96731.00;607986;233;68832;-68
2022/12/07 10:04:26;;;;;;;;;;;;;;;26.89;46.34;96729.88;606730;233;66776;-71
2022/12/07 10:06:54;;;;;;;;;;;;;;;26.90;44.15;96729.58;607927;233;63785;-68
2022/12/07 10:09:22;;;;;;;;;;;;;;;26.89;43.61;96719.88;607939;233;67557;-68
2022/12/07 10:12:00;;;;;;;;;;;;;;;26.89;46.52;96714.48;607918;233;68763;-68
2022/12/07 10:14:29;;;;;;;;;;;;;;;26.89;47.22;96719.88;607946;233;62938;-68
2022/12/07 10:16:57;;;;;;;;;;;;;;;26.90;43.70;96720.67;607992;233;68538;-66
2022/12/07 10:19:26;;;;;;;;;;;;;;;26.90;44.16;96708.00;607917;233;68743;-68
2022/12/07 10:22:03;;;;;;;;;;;;;;;26.89;45.48;96702.91;607955;233;65134;-67
2022/12/07 10:24:31;;;;;;;;;;;;;;;26.90;45.25;96697.22;607930;233;66631;-69
2022/12/07 10:26:59;;;;;;;;;;;;;;;26.89;44.17;96692.92;609159;232;68480;-67
2022/12/07 10:29:34;;;;;;;;;;;;;;;26.90;45.55;96688.31;609896;231;62959;-71
2022/12/07 10:32:03;;;;;;;;;;;;;;;26.90;45.22;96689.12;609945;232;66597;-70
2022/12/07 10:34:35;;;;;;;;;;;;;;;26.91;46.44;96679.13;609963;232;68819;-70
2022/12/07 10:37:10;;;;;;;;;;;;;;;26.92;44.23;96672.62;609883;231;63071;-70
2022/12/07 10:39:45;;;;;;;;;;;;;;;26.92;46.38;96669.92;609928;232;66607;-69
2022/12/07 10:42:23;;;;;;;;;;;;;;;26.92;46.14;96664.53;609868;231;68657;-68
2022/12/07 10:44:52;;;;;;;;;;;;;;;26.93;45.56;96663.44;609925;232;65144;-68
2022/12/07 10:47:27;;;;;;;;;;;;;;;26.93;45.14;96661.53;609222;232;68988;-70
2022/12/07 10:49:56;;;;;;;;;;;;;;;26.93;45.88;96656.13;609711;232;68468;-68
2022/12/07 10:52:25;;;;;;;;;;;;;;;26.94;45.78;96663.09;609947;232;65037;-69
2022/12/07 10:54:58;;;;;;;;;;;;;;;26.95;45.70;96661.98;608944;232;66366;-69
2022/12/07 10:57:30;;;;;;;;;;;;;;;26.96;44.41;96654.70;609939;232;66498;-69
2022/12/07 10:59:59;;;;;;;;;;;;;;;26.95;44.73;96653.89;609845;232;65063;-69
2022/12/07 11:02:28;;;;;;;;;;;;;;;26.98;45.81;96655.16;609757;232;66692;-68
2022/12/07 11:04:57;;;;;;;;;;;;;;;27.00;44.42;96651.03;609709;232;66453;-68
2022/12/07 11:07:41;;;;;;;;;;;;;;;27.02;45.82;96639.94;608794;232;64895;-68
2022/12/07 11:10:19;;;;;;;;;;;;;;;27.03;45.24;96638.81;609846;232;69660;-68
2022/12/07 11:12:57;;;;;;;;;;;;;;;27.04;43.72;96626.94;611227;230;68806;-68
2022/12/07 11:15:44;;;;;;;;;;;;;;;27.06;45.37;96634.69;616514;230;65155;-68
2022/12/07 11:18:13;;;;;;;;;;;;;;;27.07;46.20;96628.20;609632;232;68943;-68
2022/12/07 11:20:47;;;;;;;;;;;;;;;27.09;47.46;96617.86;609370;232;66493;-69
2022/12/07 11:23:19;;;;;;;;;;;;;;;27.09;44.34;96610.59;612403;230;65287;-69
2022/12/07 11:25:54;;;;;;;;;;;;;;;27.10;45.77;96605.98;616548;230;68839;-69
2022/12/07 11:28:35;;;;;;;;;;;;;;;27.10;46.90;96606.77;614854;230;68658;-69
2022/12/07 11:31:04;;;;;;;;;;;;;;;27.10;46.44;96606.77;614752;230;65325;-69
2022/12/07 11:33:36;;;;;;;;;;;;;;;27.11;46.37;96604.86;614519;230;68256;-68
2022/12/07 11:36:05;;;;;;;;;;;;;;;27.11;46.68;96600.25;614553;230;68629;-68
2022/12/07 11:38:39;;;;;;;;;;;;;;;27.13;47.36;96603.42;614381;230;64910;-67
2022/12/07 11:41:13;;;;;;;;;;;;;;;27.12;42.89;96601.03;614713;230;68908;-67
2022/12/07 11:43:42;;;;;;;;;;;;;;;27.12;45.63;96599.16;614777;230;68453;-68
2022/12/07 11:46:12;;;;;;;;;;;;;;;27.12;46.59;96595.64;614652;230;63109;-68
2022/12/07 11:48:41;;;;;;;;;;;;;;;27.11;47.04;96589.46;614888;230;66192;-68
2022/12/07 11:51:09;;;;;;;;;;;;;;;27.10;46.33;96589.80;614806;230;66358;-68
2022/12/07 11:53:41;;;;;;;;;;;;;;;27.11;45.71;96592.16;614875;230;63855;-69
2022/12/07 11:56:13;;;;;;;;;;;;;;;27.12;45.69;96585.67;614914;230;68835;-69
2022/12/07 11:58:52;;;;;;;;;;;;;;;27.13;46.88;96581.06;614838;230;68721;-69
2022/12/07 12:01:30;;;;;;;;;;;;;;;27.13;46.11;96575.67;614925;230;64869;-69
2022/12/07 12:04:12;;;;;;;;;;;;;;;27.13;45.66;96573.76;614808;230;68807;-68
2022/12/07 12:06:41;;;;;;;;;;;;;;;27.14;45.25;96567.23;614780;230;66714;-69
2022/12/07 12:09:19;;;;;;;;;;;;;;;27.16;45.13;96577.72;614838;230;65647;-67
2022/12/07 12:12:05;;;;;;;;;;;;;;;27.16;45.75;96573.14;607450;233;67306;-68
2022/12/07 12:14:34;;;;;;;;;;;;;;;27.16;46.07;96580.42;614898;230;68725;-70
2022/12/07 12:17:09;;;;;;;;;;;;;;;27.16;45.45;96567.75;614857;230;65392;-69
2022/12/07 12:19:45;;;;;;;;;;;;;;;27.16;47.75;96566.93;614133;230;50830;-69
2022/12/07 12:22:17;;;;;;;;;;;;;;;27.16;46.22;96562.35;614128;230;68508;-69
2022/12/07 12:24:46;;;;;;;;;;;;;;;27.17;44.99;96547.77;614847;230;64950;-68
2022/12/07 12:27:17;;;;;;;;;;;;;;;27.16;43.82;96551.56;616233;230;67374;-69
2022/12/07 12:29:45;;;;;;;;;;;;;;;27.18;43.83;96543.16;616710;230;69129;-68
2022/12/07 12:32:17;;;;;;;;;;;;;;;27.18;46.85;96541.25;616895;230;65036;-67
2022/12/07 12:34:49;;;;;;;;;;;;;;;27.18;45.51;96549.34;616840;230;68699;-68
2022/12/07 12:37:36;;;;;;;;;;;;;;;27.18;45.95;96543.95;616845;230;68872;-67
2022/12/07 12:40:19;;;;;;;;;;;;;;;27.18;45.19;96537.77;616803;230;44710;-68
2022/12/07 12:42:49;;;;;;;;;;;;;;;27.16;43.21;96534.56;616588;230;66704;-68
2022/12/07 12:45:21;;;;;;;;;;;;;;;27.14;42.95;96532.17;616844;230;68720;-68
2022/12/07 12:48:01;;;;;;;;;;;;;;;27.12;42.58;96534.42;616835;230;62925;-71
2022/12/07 12:50:34;;;;;;;;;;;;;;;27.12;42.91;96530.91;616818;230;68585;-68
2022/12/07 12:53:14;;;;;;;;;;;;;;;27.13;44.30;96535.21;616947;230;68740;-68
2022/12/07 12:55:43;;;;;;;;;;;;;;;27.14;43.12;96532.17;616775;230;63003;-68
2022/12/07 12:58:22;;;;;;;;;;;;;;;27.14;44.90;96532.17;616892;230;69065;-67
2022/12/07 13:00:51;;;;;;;;;;;;;;;27.13;44.88;96530.60;616832;230;68511;-68
2022/12/07 13:03:26;;;;;;;;;;;;;;;27.13;43.66;96530.60;615845;230;65083;-66
2022/12/07 13:06:07;;;;;;;;;;;;;;;27.12;44.37;96529.03;616866;230;66807;-68
2022/12/07 13:08:36;;;;;;;;;;;;;;;27.13;44.70;96519.81;611904;230;68554;-67
2022/12/07 13:11:20;;;;;;;;;;;;;;;27.14;43.88;96517.91;616947;230;65103;-68